sensor_id;sensor_type;location;lat;lon;timestamp;temperature;humidity
38606;DHT22;24365;48.446;8.850;2023-02-26T09:31:01;-1.20;58.50
38606;DHT22;24365;48.446;8.850;2023-02-26T09:36:02;-1.10;56.90
38606;DHT22;24365;48.446;8.850;2023-02-26T09:41:05;-1.10;56.70
38606;DHT22;24365;48.446;8.850;2023-02-26T09:46:22;-1.10;56.40
38606;DHT22;24365;48.446;8.850;2023-02-26T09:51:24;-1.10;57.00
38606;DHT22;24365;48.446;8.850;2023-02-26T09:56:26;-1.10;57.80
38606;DHT22;24365;48.446;8.850;2023-02-26T10:07:37;-1.10;56.80
38606;DHT22;24365;48.446;8.850;2023-02-26T10:12:16;-1.20;57.10
38606;DHT22;24365;48.446;8.850;2023-02-26T10:17:27;-1.20;58.30
38606;DHT22;24365;48.446;8.850;2023-02-26T10:28:16;-1.20;57.70
38606;DHT22;24365;48.446;8.850;2023-02-26T10:33:05;-1.20;58.80
38606;DHT22;24365;48.446;8.850;2023-02-26T10:38:13;-1.20;59.80
38606;DHT22;24365;48.446;8.850;2023-02-26T10:43:24;-0.80;59.20
38606;DHT22;24365;48.446;8.850;2023-02-26T10:53:27;-0.10;57.30
38606;DHT22;24365;48.446;8.850;2023-02-26T10:58:30;0.00;55.80
38606;DHT22;24365;48.446;8.850;2023-02-26T11:03:31;-0.10;55.50
38606;DHT22;24365;48.446;8.850;2023-02-26T11:08:43;-0.20;56.00
38606;DHT22;24365;48.446;8.850;2023-02-26T11:13:45;-0.30;56.40
38606;DHT22;24365;48.446;8.850;2023-02-26T11:18:47;-0.40;56.90
38606;DHT22;24365;48.446;8.850;2023-02-26T11:23:49;-0.30;57.20
38606;DHT22;24365;48.446;8.850;2023-02-26T11:28:55;-0.20;56.80
38606;DHT22;24365;48.446;8.850;2023-02-26T11:33:58;-0.20;56.60
38606;DHT22;24365;48.446;8.850;2023-02-26T11:39:03;-0.20;56.50
38606;DHT22;24365;48.446;8.850;2023-02-26T11:44:08;-0.30;57.00
38606;DHT22;24365;48.446;8.850;2023-02-26T11:49:11;-0.30;56.30
38606;DHT22;24365;48.446;8.850;2023-02-26T11:54:21;-0.30;55.90
38606;DHT22;24365;48.446;8.850;2023-02-26T11:59:23;-0.20;56.50
38606;DHT22;24365;48.446;8.850;2023-02-26T12:04:24;0.00;55.70
38606;DHT22;24365;48.446;8.850;2023-02-26T12:09:25;0.10;56.00
38606;DHT22;24365;48.446;8.850;2023-02-26T12:14:43;0.20;55.10
38606;DHT22;24365;48.446;8.850;2023-02-26T12:50:59;0.20;53.10
38606;DHT22;24365;48.446;8.850;2023-02-26T13:01:13;0.20;53.70
38606;DHT22;24365;48.446;8.850;2023-02-26T13:16:54;0.40;54.90
38606;DHT22;24365;48.446;8.850;2023-02-26T13:22:00;0.50;54.30
38606;DHT22;24365;48.446;8.850;2023-02-26T13:27:03;0.50;53.50
38606;DHT22;24365;48.446;8.850;2023-02-26T13:37:05;0.40;52.70
38606;DHT22;24365;48.446;8.850;2023-02-26T13:52:29;0.50;54.00
38606;DHT22;24365;48.446;8.850;2023-02-26T13:57:35;0.40;56.80
38606;DHT22;24365;48.446;8.850;2023-02-26T14:12:44;0.60;57.40
38606;DHT22;24365;48.446;8.850;2023-02-26T14:17:48;0.70;55.80
38606;DHT22;24365;48.446;8.850;2023-02-26T14:22:51;0.80;55.10
38606;DHT22;24365;48.446;8.850;2023-02-26T14:28:16;0.80;54.10
38606;DHT22;24365;48.446;8.850;2023-02-26T14:33:14;0.80;53.60
38606;DHT22;24365;48.446;8.850;2023-02-26T14:43:30;0.70;52.90
38606;DHT22;24365;48.446;8.850;2023-02-26T14:48:32;0.80;52.50
38606;DHT22;24365;48.446;8.850;2023-02-26T14:58:54;0.80;49.50
38606;DHT22;24365;48.446;8.850;2023-02-26T15:09:08;0.80;49.80
38606;DHT22;24365;48.446;8.850;2023-02-26T15:19:25;0.90;48.20
38606;DHT22;24365;48.446;8.850;2023-02-26T15:24:29;0.90;47.70
38606;DHT22;24365;48.446;8.850;2023-02-26T15:29:34;0.90;46.90
38606;DHT22;24365;48.446;8.850;2023-02-26T15:34:35;0.90;45.70
38606;DHT22;24365;48.446;8.850;2023-02-26T15:39:36;1.00;46.10
38606;DHT22;24365;48.446;8.850;2023-02-26T15:44:37;1.00;45.80
38606;DHT22;24365;48.446;8.850;2023-02-26T15:49:39;1.10;45.50
38606;DHT22;24365;48.446;8.850;2023-02-26T15:54:45;1.10;45.00
38606;DHT22;24365;48.446;8.850;2023-02-26T15:59:48;1.00;45.00
38606;DHT22;24365;48.446;8.850;2023-02-26T16:04:49;1.00;44.60
38606;DHT22;24365;48.446;8.850;2023-02-26T16:09:54;1.00;44.80
38606;DHT22;24365;48.446;8.850;2023-02-26T16:14:56;1.00;45.30
38606;DHT22;24365;48.446;8.850;2023-02-26T16:19:59;0.90;47.50
38606;DHT22;24365;48.446;8.850;2023-02-26T16:25:04;0.80;48.40
38606;DHT22;24365;48.446;8.850;2023-02-26T16:30:06;0.70;48.80
38606;DHT22;24365;48.446;8.850;2023-02-26T16:35:09;0.70;48.10
38606;DHT22;24365;48.446;8.850;2023-02-26T16:45:22;0.70;46.80
38606;DHT22;24365;48.446;8.850;2023-02-26T16:50:25;0.60;46.30
38606;DHT22;24365;48.446;8.850;2023-02-26T16:55:28;0.60;46.10
38606;DHT22;24365;48.446;8.850;2023-02-26T17:00:29;0.60;46.70
38606;DHT22;24365;48.446;8.850;2023-02-26T17:05:33;0.50;46.10
38606;DHT22;24365;48.446;8.850;2023-02-26T17:10:37;0.50;46.30
38606;DHT22;24365;48.446;8.850;2023-02-26T17:15:38;0.50;46.90
38606;DHT22;24365;48.446;8.850;2023-02-26T17:20:40;0.50;46.20
38606;DHT22;24365;48.446;8.850;2023-02-26T17:25:42;0.40;45.70
38606;DHT22;24365;48.446;8.850;2023-02-26T17:30:43;0.50;45.50
38606;DHT22;24365;48.446;8.850;2023-02-26T17:35:44;0.40;44.70
38606;DHT22;24365;48.446;8.850;2023-02-26T17:40:44;0.40;44.70
38606;DHT22;24365;48.446;8.850;2023-02-26T17:45:47;0.40;44.30
38606;DHT22;24365;48.446;8.850;2023-02-26T17:50:52;0.30;44.30
38606;DHT22;24365;48.446;8.850;2023-02-26T17:55:54;0.40;43.90
38606;DHT22;24365;48.446;8.850;2023-02-26T18:00:55;0.30;44.30
38606;DHT22;24365;48.446;8.850;2023-02-26T18:05:56;0.40;43.80
38606;DHT22;24365;48.446;8.850;2023-02-26T18:10:57;0.30;43.90
38606;DHT22;24365;48.446;8.850;2023-02-26T18:15:58;0.30;44.00
38606;DHT22;24365;48.446;8.850;2023-02-26T18:21:01;0.20;42.90
38606;DHT22;24365;48.446;8.850;2023-02-26T18:26:02;0.20;43.10
38606;DHT22;24365;48.446;8.850;2023-02-26T18:31:03;0.20;42.40
38606;DHT22;24365;48.446;8.850;2023-02-26T18:36:08;0.20;42.60
38606;DHT22;24365;48.446;8.850;2023-02-26T18:41:11;0.10;43.20
38606;DHT22;24365;48.446;8.850;2023-02-26T18:46:12;0.10;43.10
38606;DHT22;24365;48.446;8.850;2023-02-26T18:51:13;0.10;42.60
38606;DHT22;24365;48.446;8.850;2023-02-26T18:56:13;0.10;42.70
38606;DHT22;24365;48.446;8.850;2023-02-26T19:01:14;0.10;42.90
38606;DHT22;24365;48.446;8.850;2023-02-26T19:06:15;0.10;43.20
38606;DHT22;24365;48.446;8.850;2023-02-26T19:11:16;0.00;42.80
38606;DHT22;24365;48.446;8.850;2023-02-26T19:16:17;-0.10;42.80
38606;DHT22;24365;48.446;8.850;2023-02-26T19:21:22;0.00;42.40
38606;DHT22;24365;48.446;8.850;2023-02-26T19:26:22;-0.10;43.30
38606;DHT22;24365;48.446;8.850;2023-02-26T19:36:39;-0.20;43.80
38606;DHT22;24365;48.446;8.850;2023-02-26T19:41:43;-0.10;43.60
38606;DHT22;24365;48.446;8.850;2023-02-26T19:46:43;-0.10;43.80
38606;DHT22;24365;48.446;8.850;2023-02-26T19:51:44;-0.20;43.70
38606;DHT22;24365;48.446;8.850;2023-02-26T19:56:45;-0.20;44.00
38606;DHT22;24365;48.446;8.850;2023-02-26T20:01:46;-0.20;44.20
38606;DHT22;24365;48.446;8.850;2023-02-26T20:06:48;-0.20;44.50
38606;DHT22;24365;48.446;8.850;2023-02-26T20:11:49;-0.20;44.30
38606;DHT22;24365;48.446;8.850;2023-02-26T20:16:50;-0.20;44.40
38606;DHT22;24365;48.446;8.850;2023-02-26T20:21:51;-0.30;44.80
38606;DHT22;24365;48.446;8.850;2023-02-26T20:26:51;-0.30;45.40
38606;DHT22;24365;48.446;8.850;2023-02-26T20:31:52;-0.30;45.10
38606;DHT22;24365;48.446;8.850;2023-02-26T20:36:53;-0.30;45.60
38606;DHT22;24365;48.446;8.850;2023-02-26T20:41:54;-0.40;45.60
38606;DHT22;24365;48.446;8.850;2023-02-26T20:46:54;-0.50;45.90
38606;DHT22;24365;48.446;8.850;2023-02-26T20:51:55;-0.50;45.90
38606;DHT22;24365;48.446;8.850;2023-02-26T20:56:56;-0.50;46.00
38606;DHT22;24365;48.446;8.850;2023-02-26T21:01:56;-0.50;46.30
38606;DHT22;24365;48.446;8.850;2023-02-26T21:06:57;-0.60;46.20
38606;DHT22;24365;48.446;8.850;2023-02-26T21:12:12;-0.60;46.10
38606;DHT22;24365;48.446;8.850;2023-02-26T21:17:12;-0.60;46.00
38606;DHT22;24365;48.446;8.850;2023-02-26T21:22:13;-0.70;46.20
38606;DHT22;24365;48.446;8.850;2023-02-26T21:27:14;-0.70;46.80
38606;DHT22;24365;48.446;8.850;2023-02-26T21:32:16;-0.70;46.50
38606;DHT22;24365;48.446;8.850;2023-02-26T21:37:16;-0.70;46.90
38606;DHT22;24365;48.446;8.850;2023-02-26T21:42:17;-0.80;46.90
38606;DHT22;24365;48.446;8.850;2023-02-26T21:47:18;-0.90;47.20
38606;DHT22;24365;48.446;8.850;2023-02-26T21:52:18;-1.00;47.00
38606;DHT22;24365;48.446;8.850;2023-02-26T21:57:19;-1.00;47.30
38606;DHT22;24365;48.446;8.850;2023-02-26T22:02:20;-1.00;47.40
38606;DHT22;24365;48.446;8.850;2023-02-26T22:07:20;-1.10;47.60
38606;DHT22;24365;48.446;8.850;2023-02-26T22:12:21;-1.10;48.00
38606;DHT22;24365;48.446;8.850;2023-02-26T22:17:22;-1.20;48.50
38606;DHT22;24365;48.446;8.850;2023-02-26T22:22:23;-1.10;48.80
38606;DHT22;24365;48.446;8.850;2023-02-26T22:27:23;-1.20;48.90
38606;DHT22;24365;48.446;8.850;2023-02-26T22:32:24;-1.20;49.10
38606;DHT22;24365;48.446;8.850;2023-02-26T22:37:25;-1.20;49.10
38606;DHT22;24365;48.446;8.850;2023-02-26T22:42:25;-1.30;49.20
38606;DHT22;24365;48.446;8.850;2023-02-26T22:47:26;-1.40;49.50
38606;DHT22;24365;48.446;8.850;2023-02-26T22:52:27;-1.40;49.90
38606;DHT22;24365;48.446;8.850;2023-02-26T22:57:27;-1.50;50.20
38606;DHT22;24365;48.446;8.850;2023-02-26T23:02:28;-1.50;50.50
38606;DHT22;24365;48.446;8.850;2023-02-26T23:07:29;-1.60;50.40
38606;DHT22;24365;48.446;8.850;2023-02-26T23:12:30;-1.60;50.70
38606;DHT22;24365;48.446;8.850;2023-02-26T23:17:31;-1.60;50.60
38606;DHT22;24365;48.446;8.850;2023-02-26T23:22:32;-1.60;50.90
38606;DHT22;24365;48.446;8.850;2023-02-26T23:27:32;-1.60;51.00
38606;DHT22;24365;48.446;8.850;2023-02-26T23:32:33;-1.60;51.20
38606;DHT22;24365;48.446;8.850;2023-02-26T23:37:34;-1.70;51.50
38606;DHT22;24365;48.446;8.850;2023-02-26T23:42:34;-1.60;51.50
38606;DHT22;24365;48.446;8.850;2023-02-26T23:47:35;-1.70;51.50
38606;DHT22;24365;48.446;8.850;2023-02-26T23:52:36;-1.70;51.80
38606;DHT22;24365;48.446;8.850;2023-02-26T23:57:36;-1.70;51.80
